createdAt,value
2019-01-06T00:00:27.316Z,89.60
2019-01-06T00:03:13.499Z,100.63
2019-01-06T00:06:01.845Z,124.63
2019-01-06T00:08:46.109Z,192.03
2019-01-06T00:11:35.938Z,85.70
2019-01-06T00:14:27.085Z,83.60
2019-01-06T00:17:09.871Z,97.63
2019-01-06T00:19:51.237Z,140.90
2019-01-06T00:22:57.460Z,94.67
2019-01-06T00:25:44.444Z,115.23
2019-01-06T00:28:30.787Z,467.33
2019-01-06T00:31:18.557Z,300.90
2019-01-06T00:34:21.772Z,533.57
2019-01-06T00:37:08.305Z,266.77
2019-01-06T00:39:58.141Z,146.03
2019-01-06T00:42:45.569Z,134.70
2019-01-06T00:45:33.220Z,371.13
2019-01-06T00:48:30.607Z,279.83
2019-01-06T00:51:17.849Z,146.43
2019-01-06T00:54:04.374Z,101.70
2019-01-06T00:56:53.087Z,120.60
2019-01-06T00:59:50.829Z,120.03
2019-01-06T01:02:45.162Z,110.53
2019-01-06T01:05:30.042Z,161.00
2019-01-06T01:08:32.659Z,116.67
2019-01-06T01:11:26.138Z,122.90
2019-01-06T01:14:18.725Z,134.27
2019-01-06T01:17:05.725Z,124.47
2019-01-06T01:19:42.733Z,104.80
2019-01-06T01:22:32.998Z,124.23
2019-01-06T01:25:19.412Z,110.90
2019-01-06T01:28:06.109Z,115.57
2019-01-06T01:31:01.709Z,116.10
2019-01-06T01:33:49.265Z,107.30
2019-01-06T01:36:52.084Z,100.70
2019-01-06T01:39:38.635Z,95.27
2019-01-06T01:42:32.431Z,102.40
2019-01-06T01:45:15.166Z,112.17
2019-01-06T01:48:01.594Z,95.67
2019-01-06T01:50:44.586Z,99.33
2019-01-06T01:53:31.246Z,98.50
2019-01-06T01:56:32.702Z,113.30
2019-01-06T01:59:19.832Z,98.63
2019-01-06T02:02:06.357Z,111.03
2019-01-06T02:04:50.813Z,108.50
2019-01-06T02:07:42.577Z,98.23
2019-01-06T02:10:22.073Z,113.13
2019-01-06T02:13:10.918Z,102.03
2019-01-06T02:16:00.598Z,98.70
2019-01-06T02:18:50.970Z,113.60
2019-01-06T02:21:37.405Z,106.20
2019-01-06T02:24:28.037Z,102.50
2019-01-06T02:27:14.647Z,101.27
2019-01-06T02:29:57.067Z,95.60
2019-01-06T02:32:40.246Z,93.70
2019-01-06T02:35:29.784Z,88.83
2019-01-06T02:38:16.657Z,97.87
2019-01-06T02:41:03.891Z,95.13
2019-01-06T02:43:52.735Z,96.83
2019-01-06T02:46:40.010Z,94.63
2019-01-06T02:49:33.726Z,97.53
2019-01-06T02:52:24.776Z,104.27
2019-01-06T02:55:17.474Z,99.67
2019-01-06T02:58:23.728Z,103.43
2019-01-06T03:01:10.520Z,90.87
2019-01-06T03:04:07.500Z,93.43
2019-01-06T03:06:52.281Z,90.67
2019-01-06T03:09:39.962Z,97.10
2019-01-06T03:12:22.268Z,94.83
2019-01-06T03:15:08.925Z,92.47
2019-01-06T03:17:59.905Z,95.90
2019-01-06T03:21:03.372Z,93.57
2019-01-06T03:24:01.337Z,87.70
2019-01-06T03:26:49.037Z,95.60
2019-01-06T03:29:36.752Z,99.93
2019-01-06T03:32:20.983Z,94.80
2019-01-06T03:35:08.569Z,87.57
2019-01-06T03:37:57.101Z,94.50
2019-01-06T03:40:54.371Z,90.57
2019-01-06T03:43:42.330Z,97.83
2019-01-06T03:46:20.782Z,96.73
2019-01-06T03:49:23.846Z,97.43
2019-01-06T03:52:06.616Z,101.37
2019-01-06T03:54:57.532Z,85.70
2019-01-06T03:57:46.522Z,91.40
2019-01-06T04:00:28.295Z,89.73
2019-01-06T04:03:08.643Z,93.03
2019-01-06T04:06:00.533Z,83.33
2019-01-06T04:08:54.928Z,87.00
2019-01-06T04:12:01.032Z,89.33
2019-01-06T04:14:48.181Z,92.70
2019-01-06T04:17:32.265Z,87.30
2019-01-06T04:20:13.844Z,91.93
2019-01-06T04:23:16.840Z,85.93
2019-01-06T04:26:19.648Z,88.87
2019-01-06T04:29:16.479Z,88.67
2019-01-06T04:32:04.049Z,92.37
2019-01-06T04:35:00.749Z,89.87
2019-01-06T04:37:47.237Z,92.43
2019-01-06T04:40:34.576Z,89.40
2019-01-06T04:43:21.364Z,85.77
2019-01-06T04:46:18.621Z,95.07
2019-01-06T04:49:05.520Z,92.50
2019-01-06T04:51:46.687Z,85.67
2019-01-06T04:54:44.457Z,96.83
2019-01-06T04:57:32.831Z,87.00
2019-01-06T05:00:20.792Z,91.00
2019-01-06T05:03:22.761Z,85.17
2019-01-06T05:06:10.347Z,92.93
2019-01-06T05:08:56.874Z,85.47
2019-01-06T05:11:43.238Z,92.10
2019-01-06T05:14:29.888Z,96.77
2019-01-06T05:17:23.550Z,84.30
2019-01-06T05:20:10.285Z,82.10
2019-01-06T05:22:56.803Z,83.87
2019-01-06T05:25:45.063Z,86.90
2019-01-06T05:28:31.823Z,89.20
2019-01-06T05:31:23.827Z,83.30
2019-01-06T05:34:21.407Z,88.57
2019-01-06T05:37:09.645Z,84.10
2019-01-06T05:39:52.145Z,82.67
2019-01-06T05:42:41.414Z,84.40
2019-01-06T05:45:25.077Z,86.57
2019-01-06T05:48:11.429Z,85.33
2019-01-06T05:51:01.741Z,84.10
2019-01-06T05:53:48.365Z,86.83
2019-01-06T05:56:42.150Z,84.60
2019-01-06T05:59:31.275Z,94.03
2019-01-06T06:02:22.130Z,84.27
2019-01-06T06:05:12.665Z,85.93
2019-01-06T06:07:55.905Z,87.10
2019-01-06T06:10:42.181Z,91.73
2019-01-06T06:13:38.970Z,88.20
2019-01-06T06:16:35.693Z,86.90
2019-01-06T06:19:17.895Z,89.63
2019-01-06T06:22:04.329Z,86.10
2019-01-06T06:24:48.029Z,87.40
2019-01-06T06:27:26.226Z,85.30
2019-01-06T06:30:14.709Z,84.40
2019-01-06T06:33:02.873Z,87.30
2019-01-06T06:35:49.421Z,87.53
2019-01-06T06:38:35.801Z,91.20
2019-01-06T06:41:27.489Z,88.53
2019-01-06T06:44:13.761Z,88.53
2019-01-06T06:47:01.255Z,91.70
2019-01-06T06:49:47.497Z,85.60
2019-01-06T06:52:33.949Z,87.03
2019-01-06T06:55:11.887Z,86.63
2019-01-06T06:58:32.955Z,83.77
2019-01-06T07:01:21.962Z,90.03
2019-01-06T07:04:21.921Z,93.90
2019-01-06T07:07:03.889Z,89.20
2019-01-06T07:09:54.601Z,88.50
2019-01-06T07:12:38.757Z,84.00
2019-01-06T07:15:23.522Z,86.13
2019-01-06T07:18:09.748Z,88.60
2019-01-06T07:21:11.876Z,89.70
2019-01-06T07:24:00.425Z,86.73
2019-01-06T07:26:46.591Z,93.27
2019-01-06T07:29:32.989Z,88.47
2019-01-06T07:32:27.892Z,92.60
2019-01-06T07:35:16.136Z,86.03
2019-01-06T07:38:02.633Z,105.40
2019-01-06T07:40:53.225Z,89.60
2019-01-06T07:43:31.521Z,97.47
2019-01-06T07:46:16.721Z,91.00
2019-01-06T07:49:10.309Z,85.10
2019-01-06T07:51:51.690Z,84.70
2019-01-06T07:54:35.173Z,91.60
2019-01-06T07:57:16.921Z,81.97
2019-01-06T08:00:03.214Z,84.23
2019-01-06T08:02:49.677Z,82.83
2019-01-06T08:05:31.716Z,83.77
2019-01-06T08:08:18.328Z,79.67
2019-01-06T08:10:58.596Z,85.50
2019-01-06T08:13:49.589Z,81.77
2019-01-06T08:16:36.041Z,83.93
2019-01-06T08:19:17.171Z,82.00
2019-01-06T08:22:04.494Z,83.60
2019-01-06T08:24:58.237Z,81.20
2019-01-06T08:27:44.589Z,82.20
2019-01-06T08:30:31.374Z,92.03
2019-01-06T08:33:34.217Z,79.30
2019-01-06T08:36:33.949Z,78.90
2019-01-06T08:39:21.960Z,83.43
2019-01-06T08:42:20.054Z,84.67
2019-01-06T08:45:13.965Z,86.50
2019-01-06T08:48:00.449Z,83.57
2019-01-06T08:50:53.668Z,85.33
2019-01-06T08:53:40.282Z,116.17
2019-01-06T08:56:27.407Z,88.90
2019-01-06T08:59:07.298Z,87.90
2019-01-06T09:02:10.294Z,84.03
2019-01-06T09:04:57.905Z,86.43
2019-01-06T09:07:45.057Z,85.67
2019-01-06T09:10:41.686Z,81.20
2019-01-06T09:13:28.490Z,82.30
2019-01-06T09:16:23.350Z,79.83
2019-01-06T09:19:09.613Z,82.80
2019-01-06T09:22:16.448Z,82.27
2019-01-06T09:25:14.599Z,86.10
2019-01-06T09:28:14.615Z,81.67
2019-01-06T09:30:58.470Z,92.40
2019-01-06T09:33:45.073Z,81.57
2019-01-06T09:36:31.676Z,93.63
2019-01-06T09:39:32.033Z,82.83
2019-01-06T09:42:23.515Z,87.30
2019-01-06T09:45:31.077Z,82.60
2019-01-06T09:48:17.980Z,86.43
2019-01-06T09:51:01.413Z,83.87
2019-01-06T09:53:52.011Z,82.53
2019-01-06T09:56:39.354Z,80.90
2019-01-06T09:59:25.982Z,79.50
2019-01-06T10:02:24.349Z,77.63
2019-01-06T10:05:09.205Z,82.60
2019-01-06T10:07:55.705Z,81.90
2019-01-06T10:10:51.838Z,86.40
2019-01-06T10:13:38.081Z,83.30
2019-01-06T10:16:34.851Z,78.90
2019-01-06T10:19:13.501Z,80.63
2019-01-06T10:22:07.190Z,84.80
2019-01-06T10:24:58.290Z,83.03
2019-01-06T10:27:56.163Z,79.77
2019-01-06T10:30:42.602Z,87.93
2019-01-06T10:33:30.412Z,81.60
2019-01-06T10:36:26.949Z,81.37
2019-01-06T10:39:13.058Z,102.40
2019-01-06T10:42:03.050Z,82.30
2019-01-06T10:44:49.106Z,84.20
2019-01-06T10:47:35.668Z,86.10
2019-01-06T10:50:28.306Z,82.43
2019-01-06T10:53:12.970Z,90.43
2019-01-06T10:56:00.257Z,90.43
2019-01-06T10:58:46.917Z,83.33
2019-01-06T11:01:33.241Z,82.47
2019-01-06T11:04:19.029Z,83.33
2019-01-06T11:07:05.552Z,80.07
2019-01-06T11:09:49.265Z,82.30
2019-01-06T11:12:36.073Z,81.63
2019-01-06T11:15:19.058Z,84.17
2019-01-06T11:18:08.656Z,88.53
2019-01-06T11:21:02.924Z,82.50
2019-01-06T11:23:50.377Z,80.57
2019-01-06T11:26:44.180Z,86.30
2019-01-06T11:29:30.461Z,87.90
2019-01-06T11:32:17.460Z,85.33
2019-01-06T11:35:04.567Z,89.83
2019-01-06T11:37:55.381Z,107.30
2019-01-06T11:40:42.214Z,97.03
2019-01-06T11:43:28.571Z,86.37
2019-01-06T11:46:14.982Z,93.13
2019-01-06T11:49:11.555Z,89.30
2019-01-06T11:51:58.403Z,97.67
2019-01-06T11:54:45.459Z,90.00
2019-01-06T11:57:32.094Z,119.47
2019-01-06T12:00:30.436Z,109.37
2019-01-06T12:03:09.164Z,98.03
2019-01-06T12:06:10.137Z,102.60
2019-01-06T12:09:13.053Z,90.73
2019-01-06T12:12:00.097Z,106.00
2019-01-06T12:14:46.314Z,96.30
2019-01-06T12:17:33.226Z,116.90
2019-01-06T12:20:21.004Z,128.37
2019-01-06T12:23:04.576Z,96.97
2019-01-06T12:25:58.233Z,87.83
2019-01-06T12:28:46.148Z,90.13
2019-01-06T12:31:33.807Z,87.17
2019-01-06T12:34:30.465Z,89.37
2019-01-06T12:37:21.584Z,88.87
2019-01-06T12:40:12.029Z,86.80
2019-01-06T12:42:58.590Z,95.90
2019-01-06T12:45:52.292Z,92.10
2019-01-06T12:48:38.516Z,101.50
2019-01-06T12:51:16.252Z,82.80
2019-01-06T12:53:57.121Z,84.47
2019-01-06T12:57:00.409Z,106.27
2019-01-06T12:59:49.884Z,85.03
2019-01-06T13:02:31.597Z,87.83
2019-01-06T13:05:18.053Z,89.87
2019-01-06T13:07:58.853Z,91.07
2019-01-06T13:10:57.003Z,85.70
2019-01-06T13:13:40.247Z,84.57
2019-01-06T13:16:26.550Z,95.20
2019-01-06T13:19:17.733Z,81.63
2019-01-06T13:22:04.291Z,84.10
2019-01-06T13:24:58.537Z,81.10
2019-01-06T13:27:45.044Z,86.23
2019-01-06T13:30:32.145Z,82.40
2019-01-06T13:33:29.393Z,148.10
2019-01-06T13:36:19.750Z,85.63
2019-01-06T13:39:11.402Z,83.70
2019-01-06T13:41:59.925Z,94.17
2019-01-06T13:44:50.818Z,93.20
2019-01-06T13:47:50.390Z,90.07
2019-01-06T13:50:36.673Z,84.53
2019-01-06T13:53:39.673Z,90.20
2019-01-06T13:56:31.873Z,92.00
2019-01-06T13:59:31.586Z,94.00
2019-01-06T14:02:21.062Z,100.73
2019-01-06T14:05:07.657Z,91.93
2019-01-06T14:07:54.396Z,88.50
2019-01-06T14:10:37.679Z,98.37
2019-01-06T14:13:30.104Z,98.70
2019-01-06T14:16:30.356Z,95.20
2019-01-06T14:19:13.053Z,85.23
2019-01-06T14:22:06.334Z,91.00
2019-01-06T14:25:12.093Z,93.57
2019-01-06T14:27:58.132Z,89.10
2019-01-06T14:30:49.097Z,86.93
2019-01-06T14:33:36.592Z,103.03
2019-01-06T14:36:18.853Z,95.97
2019-01-06T14:39:12.722Z,93.97
2019-01-06T14:41:55.081Z,99.30
2019-01-06T14:44:49.117Z,99.37
2019-01-06T14:47:37.569Z,104.07
2019-01-06T14:50:25.381Z,105.50
2019-01-06T14:53:25.593Z,101.90
2019-01-06T14:56:12.921Z,93.47
2019-01-06T14:59:00.478Z,89.87
2019-01-06T15:01:44.828Z,92.63
2019-01-06T15:04:42.833Z,95.40
2019-01-06T15:07:45.866Z,92.50
2019-01-06T15:10:48.852Z,90.80
2019-01-06T15:13:38.231Z,91.33
2019-01-06T15:16:22.038Z,89.27
2019-01-06T15:19:09.507Z,91.17
2019-01-06T15:22:08.958Z,93.30
2019-01-06T15:24:57.628Z,90.77
2019-01-06T15:28:00.353Z,92.47
2019-01-06T15:30:46.609Z,89.07
2019-01-06T15:33:34.138Z,92.13
2019-01-06T15:36:20.663Z,89.33
2019-01-06T15:39:02.145Z,92.50
2019-01-06T15:41:44.779Z,87.57
2019-01-06T15:44:31.263Z,89.13
2019-01-06T15:47:17.982Z,88.90
2019-01-06T15:49:51.669Z,86.07
2019-01-06T15:52:38.088Z,91.80
2019-01-06T15:55:24.689Z,85.80
2019-01-06T15:58:15.207Z,87.50
2019-01-06T16:01:08.875Z,86.97
2019-01-06T16:03:55.070Z,89.17
2019-01-06T16:06:41.817Z,86.00
2019-01-06T16:09:39.727Z,92.27
2019-01-06T16:12:26.726Z,85.77
2019-01-06T16:15:30.146Z,85.70
2019-01-06T16:18:27.191Z,90.73
2019-01-06T16:21:14.930Z,84.40
2019-01-06T16:23:59.886Z,87.40
2019-01-06T16:26:52.698Z,84.60
2019-01-06T16:29:50.593Z,88.10
2019-01-06T16:32:36.688Z,91.10
2019-01-06T16:35:23.378Z,82.40
2019-01-06T16:38:17.556Z,82.53
2019-01-06T16:40:59.200Z,84.60
2019-01-06T16:43:40.421Z,87.17
2019-01-06T16:46:34.501Z,82.77
2019-01-06T16:49:22.228Z,86.60
2019-01-06T16:52:22.038Z,88.23
2019-01-06T16:55:14.793Z,84.83
2019-01-06T16:58:01.120Z,84.40
2019-01-06T17:00:46.732Z,84.60
2019-01-06T17:03:40.279Z,85.67
2019-01-06T17:06:33.740Z,83.17
2019-01-06T17:09:20.192Z,86.43
2019-01-06T17:12:11.352Z,81.60
2019-01-06T17:14:57.825Z,82.97
2019-01-06T17:17:41.435Z,85.40
2019-01-06T17:20:29.279Z,84.20
2019-01-06T17:23:15.486Z,83.20
2019-01-06T17:25:53.287Z,83.87
2019-01-06T17:28:47.913Z,85.50
2019-01-06T17:31:34.396Z,83.50
2019-01-06T17:34:21.435Z,84.27
2019-01-06T17:37:12.202Z,84.20
2019-01-06T17:40:01.254Z,83.10
2019-01-06T17:42:48.307Z,81.40
2019-01-06T17:45:35.021Z,81.60
2019-01-06T17:48:23.975Z,82.83
2019-01-06T17:51:11.435Z,84.33
2019-01-06T17:53:58.025Z,82.50
2019-01-06T17:56:37.256Z,87.23
2019-01-06T17:59:17.545Z,81.67
2019-01-06T18:02:23.490Z,82.53
2019-01-06T18:05:10.080Z,84.17
2019-01-06T18:07:56.891Z,81.80
2019-01-06T18:10:43.469Z,84.90
2019-01-06T18:13:37.897Z,82.37
2019-01-06T18:16:25.421Z,83.10
2019-01-06T18:19:19.205Z,90.93
2019-01-06T18:22:07.321Z,83.27
2019-01-06T18:24:53.170Z,81.47
2019-01-06T18:27:40.305Z,81.87
2019-01-06T18:30:31.505Z,81.77
2019-01-06T18:33:19.843Z,81.23
2019-01-06T18:36:07.352Z,81.00
2019-01-06T18:38:59.018Z,81.30
2019-01-06T18:41:47.211Z,84.40
2019-01-06T18:44:34.549Z,85.00
2019-01-06T18:47:34.561Z,89.30
2019-01-06T18:50:16.742Z,83.90
2019-01-06T18:53:03.154Z,83.73
2019-01-06T18:55:56.889Z,84.93
2019-01-06T18:58:40.457Z,85.20
2019-01-06T19:01:22.105Z,88.10
2019-01-06T19:04:22.170Z,87.77
2019-01-06T19:07:01.988Z,85.17
2019-01-06T19:10:02.013Z,85.60
2019-01-06T19:12:48.609Z,86.47
2019-01-06T19:15:46.214Z,84.83
2019-01-06T19:18:27.992Z,87.20
2019-01-06T19:21:17.511Z,86.30
2019-01-06T19:24:04.337Z,91.80
2019-01-06T19:27:02.622Z,87.50
2019-01-06T19:29:53.161Z,88.23
2019-01-06T19:32:43.053Z,86.53
2019-01-06T19:35:33.313Z,89.90
2019-01-06T19:38:15.201Z,89.57
2019-01-06T19:41:18.411Z,86.30
2019-01-06T19:44:09.209Z,85.20
2019-01-06T19:46:56.780Z,96.87
2019-01-06T19:49:47.532Z,86.87
2019-01-06T19:52:36.889Z,85.60
2019-01-06T19:55:33.668Z,85.97
2019-01-06T19:58:19.824Z,85.93
2019-01-06T20:01:06.970Z,91.53
2019-01-06T20:03:53.533Z,84.97
2019-01-06T20:06:43.050Z,88.20
2019-01-06T20:09:21.725Z,86.30
2019-01-06T20:12:09.286Z,91.67
2019-01-06T20:15:15.246Z,88.03
2019-01-06T20:17:52.837Z,86.00
2019-01-06T20:20:32.538Z,88.63
2019-01-06T20:23:30.578Z,88.80
2019-01-06T20:26:10.493Z,87.90
2019-01-06T20:28:55.701Z,92.40
2019-01-06T20:31:41.322Z,87.57
2019-01-06T20:34:27.697Z,89.30
2019-01-06T20:37:18.557Z,89.60
2019-01-06T20:40:21.479Z,89.50
2019-01-06T20:43:18.234Z,86.93
2019-01-06T20:46:06.074Z,88.40
2019-01-06T20:49:00.138Z,88.97
2019-01-06T20:51:54.441Z,90.20
2019-01-06T20:54:44.825Z,88.13
2019-01-06T20:57:51.495Z,85.50
2019-01-06T21:00:39.286Z,89.27
2019-01-06T21:03:26.337Z,86.00
2019-01-06T21:06:14.318Z,90.97
2019-01-06T21:09:11.564Z,93.63
2019-01-06T21:12:14.913Z,87.87
2019-01-06T21:15:01.474Z,90.80
2019-01-06T21:17:47.891Z,89.50
2019-01-06T21:20:34.927Z,87.73
2019-01-06T21:23:25.757Z,89.13
2019-01-06T21:26:12.678Z,88.67
2019-01-06T21:28:59.149Z,93.73
2019-01-06T21:31:50.281Z,91.40
2019-01-06T21:34:33.865Z,88.07
2019-01-06T21:37:22.381Z,88.17
2019-01-06T21:40:10.954Z,86.63
2019-01-06T21:42:58.839Z,87.07
2019-01-06T21:45:45.407Z,86.77
2019-01-06T21:48:30.453Z,86.70
2019-01-06T21:51:19.644Z,90.70
2019-01-06T21:54:04.134Z,92.37
2019-01-06T21:56:49.565Z,89.00
2019-01-06T21:59:43.333Z,88.90
2019-01-06T22:02:23.093Z,90.00
2019-01-06T22:05:01.069Z,88.60
2019-01-06T22:07:45.696Z,89.23
2019-01-06T22:10:33.545Z,87.00
2019-01-06T22:13:19.895Z,90.80
2019-01-06T22:16:07.453Z,86.33
2019-01-06T22:18:53.998Z,84.70
2019-01-06T22:21:37.993Z,87.60
2019-01-06T22:24:17.584Z,90.00
2019-01-06T22:27:05.414Z,85.20
2019-01-06T22:29:52.899Z,87.80
2019-01-06T22:32:39.065Z,90.87
2019-01-06T22:35:42.129Z,95.20
2019-01-06T22:38:28.657Z,89.10
2019-01-06T22:41:12.560Z,86.70
2019-01-06T22:44:15.325Z,89.07
2019-01-06T22:47:18.288Z,92.63
2019-01-06T22:50:04.413Z,87.83
2019-01-06T22:53:02.897Z,91.70
2019-01-06T22:56:05.505Z,86.27
2019-01-06T22:58:51.794Z,91.10
2019-01-06T23:01:38.254Z,87.53
2019-01-06T23:04:15.297Z,86.37
2019-01-06T23:06:54.120Z,88.67
2019-01-06T23:09:42.114Z,89.67
2019-01-06T23:12:28.728Z,89.70
2019-01-06T23:15:16.281Z,92.60
2019-01-06T23:18:04.344Z,92.37
2019-01-06T23:20:50.966Z,87.17
2019-01-06T23:23:51.731Z,95.33
2019-01-06T23:26:48.665Z,90.60
2019-01-06T23:29:40.089Z,88.07
2019-01-06T23:32:34.785Z,87.87
2019-01-06T23:35:20.125Z,89.60
2019-01-06T23:38:06.673Z,92.30
2019-01-06T23:40:53.553Z,90.33
2019-01-06T23:44:09.841Z,88.00
2019-01-06T23:46:48.169Z,93.53
2019-01-06T23:49:34.598Z,90.40
2019-01-06T23:52:22.233Z,92.10
2019-01-06T23:55:08.518Z,101.27
2019-01-06T23:58:11.757Z,95.03
